createdAt,value
2022-08-19T00:00:14.917Z,100087.06
2022-08-19T00:02:47.031Z,100083.34
2022-08-19T00:05:20.017Z,100092.03
2022-08-19T00:07:48.230Z,100098.22
2022-08-19T00:10:19.356Z,100087.25
2022-08-19T00:12:47.326Z,100086.66
2022-08-19T00:15:18.998Z,100078.41
2022-08-19T00:17:49.444Z,100079.22
2022-08-19T00:20:20.668Z,100080.44
2022-08-19T00:22:49.223Z,100084.38
2022-08-19T00:25:19.223Z,100079.00
2022-08-19T00:27:58.588Z,100080.44
2022-08-19T00:30:26.832Z,100070.75
2022-08-19T00:32:56.070Z,100071.78
2022-08-19T00:35:28.075Z,100061.88
2022-08-19T00:37:57.369Z,100056.91
2022-08-19T00:40:27.372Z,100053.41
2022-08-19T00:42:55.746Z,100058.53
2022-08-19T00:45:26.328Z,100058.13
2022-08-19T00:47:56.407Z,100063.31
2022-08-19T00:50:25.167Z,100056.91
2022-08-19T00:52:54.466Z,100060.63
2022-08-19T00:55:24.778Z,100056.91
2022-08-19T00:57:58.390Z,100056.50
2022-08-19T01:00:28.482Z,100056.06
2022-08-19T01:02:58.849Z,100047.81
2022-08-19T01:05:29.628Z,100042.66
2022-08-19T01:07:59.058Z,100032.94
2022-08-19T01:10:33.626Z,100040.56
2022-08-19T01:13:06.798Z,100030.47
2022-08-19T01:15:36.313Z,100041.19
2022-08-19T01:18:10.262Z,100031.28
2022-08-19T01:20:38.264Z,100042.22
2022-08-19T01:23:07.783Z,100045.34
2022-08-19T01:25:42.089Z,100046.97
2022-08-19T01:28:11.229Z,100047.19
2022-08-19T01:30:40.042Z,100041.19
2022-08-19T01:33:12.590Z,100031.91
2022-08-19T01:35:43.529Z,100040.38
2022-08-19T01:38:22.708Z,100037.28
2022-08-19T01:40:50.673Z,100031.50
2022-08-19T01:43:19.980Z,100027.97
2022-08-19T01:45:48.589Z,100035.81
2022-08-19T01:48:16.812Z,100038.13
2022-08-19T01:50:45.154Z,100034.59
2022-08-19T01:53:14.492Z,100038.91
2022-08-19T01:55:46.070Z,100024.69
2022-08-19T01:58:17.978Z,100026.53
2022-08-19T02:00:47.200Z,100023.22
2022-08-19T02:03:15.291Z,100028.59
2022-08-19T02:05:44.333Z,100026.53
2022-08-19T02:08:12.339Z,100031.28
2022-08-19T02:10:43.592Z,100035.03
2022-08-19T02:13:12.469Z,100038.72
2022-08-19T02:15:40.403Z,100036.25
2022-08-19T02:18:09.243Z,100043.69
2022-08-19T02:20:37.712Z,100059.59
2022-08-19T02:23:05.989Z,100065.38
2022-08-19T02:25:45.319Z,100071.78
2022-08-19T02:28:18.293Z,100065.75
2022-08-19T02:30:47.621Z,100068.44
2022-08-19T02:33:15.986Z,100065.75
2022-08-19T02:35:44.726Z,100065.59
2022-08-19T02:38:27.573Z,100067.63
2022-08-19T02:40:59.822Z,100065.13
2022-08-19T02:43:29.820Z,100061.84
2022-08-19T02:46:02.068Z,100061.00
2022-08-19T02:48:30.173Z,100063.50
2022-08-19T02:50:58.194Z,100062.88
2022-08-19T02:53:29.720Z,100072.78
2022-08-19T02:55:59.358Z,100075.88
2022-08-19T02:58:28.264Z,100084.13
2022-08-19T03:00:58.426Z,100077.72
2022-08-19T03:03:28.988Z,100082.50
2022-08-19T03:06:10.211Z,100071.16
2022-08-19T03:08:39.835Z,100072.16
2022-08-19T03:11:15.526Z,100073.19
2022-08-19T03:13:44.174Z,100072.56
2022-08-19T03:16:13.182Z,100080.00
2022-08-19T03:18:41.409Z,100071.75
2022-08-19T03:21:10.462Z,100082.69
2022-08-19T03:23:41.059Z,100077.53
2022-08-19T03:26:16.699Z,100075.84
2022-08-19T03:28:51.397Z,100077.91
2022-08-19T03:31:44.283Z,100078.13
2022-08-19T03:34:13.392Z,100082.69
2022-08-19T03:36:41.687Z,100077.94
2022-08-19T03:39:10.393Z,100080.19
2022-08-19T03:41:44.880Z,100075.22
2022-08-19T03:44:18.533Z,100064.91
2022-08-19T03:46:50.663Z,100071.69
2022-08-19T03:49:19.841Z,100068.16
2022-08-19T03:51:49.610Z,100080.34
2022-08-19T03:54:19.504Z,100070.84
2022-08-19T03:56:50.633Z,100070.41
2022-08-19T03:59:20.831Z,100085.22
2022-08-19T04:01:49.305Z,100084.97
2022-08-19T04:04:17.332Z,100091.78
2022-08-19T04:06:48.812Z,100090.34
2022-08-19T04:09:17.452Z,100098.38
2022-08-19T04:11:49.903Z,100093.22
2022-08-19T04:14:21.681Z,100094.06
2022-08-19T04:16:50.675Z,100095.91
2022-08-19T04:19:20.457Z,100095.09
2022-08-19T04:21:51.342Z,100100.44
2022-08-19T04:24:20.625Z,100096.09
2022-08-19T04:26:50.568Z,100090.72
2022-08-19T04:29:23.154Z,100089.72
2022-08-19T04:31:51.762Z,100089.72
2022-08-19T04:34:23.464Z,100090.34
2022-08-19T04:36:53.076Z,100089.13
2022-08-19T04:39:44.837Z,100093.25
2022-08-19T04:42:32.730Z,100095.09
2022-08-19T04:45:01.125Z,100098.63
2022-08-19T04:47:48.016Z,100090.56
2022-08-19T04:50:19.554Z,100095.09
2022-08-19T04:52:47.921Z,100085.81
2022-08-19T04:55:15.964Z,100088.69
2022-08-19T04:57:47.477Z,100085.81
2022-08-19T05:00:15.832Z,100093.44
2022-08-19T05:02:43.796Z,100097.25
2022-08-19T05:05:11.890Z,100101.34
2022-08-19T05:07:43.111Z,100102.44
2022-08-19T05:10:12.495Z,100102.00
2022-08-19T05:12:40.516Z,100102.25
2022-08-19T05:15:12.601Z,100102.00
2022-08-19T05:18:03.316Z,100104.69
2022-08-19T05:20:48.928Z,100112.34
2022-08-19T05:23:21.955Z,100118.34
2022-08-19T05:25:52.593Z,100116.91
2022-08-19T05:28:21.083Z,100121.88
2022-08-19T05:30:51.867Z,100118.78
2022-08-19T05:33:22.637Z,100121.91
2022-08-19T05:35:51.297Z,100125.81
2022-08-19T05:38:20.198Z,100126.44
2022-08-19T05:40:49.084Z,100125.44
2022-08-19T05:43:17.387Z,100134.09
2022-08-19T05:45:46.025Z,100132.63
2022-08-19T05:48:15.923Z,100124.19
2022-08-19T05:50:45.326Z,100127.09
2022-08-19T05:53:13.369Z,100124.63
2022-08-19T05:55:41.324Z,100121.72
2022-08-19T05:58:09.445Z,100128.34
2022-08-19T06:00:38.169Z,100131.69
2022-08-19T06:03:11.816Z,100135.63
2022-08-19T06:05:49.498Z,100141.81
2022-08-19T06:08:33.939Z,100146.78
2022-08-19T06:11:19.930Z,100151.34
2022-08-19T06:13:52.012Z,100161.44
2022-08-19T06:16:31.091Z,100166.63
2022-08-19T06:19:04.208Z,100159.38
2022-08-19T06:21:33.872Z,100168.06
2022-08-19T06:24:03.192Z,100174.25
2022-08-19T06:26:31.428Z,100181.06
2022-08-19T06:28:59.364Z,100180.25
2022-08-19T06:31:34.311Z,100184.63
2022-08-19T06:34:04.110Z,100183.34
2022-08-19T06:36:36.507Z,100195.72
2022-08-19T06:39:06.567Z,100201.13
2022-08-19T06:41:41.042Z,100194.47
2022-08-19T06:44:18.991Z,100196.91
2022-08-19T06:46:53.651Z,100200.41
2022-08-19T06:49:23.715Z,100190.47
2022-08-19T06:51:53.009Z,100182.53
2022-08-19T06:54:21.500Z,100189.19
2022-08-19T06:56:49.580Z,100203.25
2022-08-19T06:59:19.709Z,100207.16
2022-08-19T07:01:50.588Z,100203.81
2022-08-19T07:04:20.717Z,100207.13
2022-08-19T07:06:55.335Z,100208.78
2022-08-19T07:09:25.025Z,100206.50
2022-08-19T07:11:55.018Z,100213.31
2022-08-19T07:14:26.268Z,100208.75
2022-08-19T07:16:58.135Z,100214.53
2022-08-19T07:19:29.302Z,100219.91
2022-08-19T07:21:57.783Z,100219.91
2022-08-19T07:24:31.190Z,100220.03
2022-08-19T07:27:06.775Z,100216.31
2022-08-19T07:29:43.276Z,100219.19
2022-08-19T07:32:13.484Z,100217.28
2022-08-19T07:34:41.668Z,100217.69
2022-08-19T07:37:10.973Z,100223.00
2022-08-19T07:39:41.085Z,100219.84
2022-08-19T07:42:13.413Z,100214.78
2022-08-19T07:44:50.641Z,100222.97
2022-08-19T07:47:47.415Z,100222.22
2022-08-19T07:50:12.332Z,100208.81
2022-08-19T07:52:41.261Z,100213.81
2022-08-19T07:55:41.242Z,100223.81
2022-08-19T07:58:00.509Z,100235.28
2022-08-19T08:00:31.273Z,100233.78
2022-08-19T08:02:59.285Z,100238.75
2022-08-19T08:05:45.214Z,100242.91
2022-08-19T08:08:31.178Z,100245.88
2022-08-19T08:11:02.322Z,100253.69
2022-08-19T08:13:30.554Z,100242.03
2022-08-19T08:15:59.653Z,100240.16
2022-08-19T08:18:30.525Z,100240.16
2022-08-19T08:20:59.634Z,100243.97
2022-08-19T08:23:29.542Z,100242.97
2022-08-19T08:26:00.133Z,100246.28
2022-08-19T08:28:30.596Z,100245.88
2022-08-19T08:30:59.393Z,100241.56
2022-08-19T08:33:34.613Z,100250.03
2022-08-19T08:36:04.121Z,100235.69
2022-08-19T08:38:38.454Z,100235.41
2022-08-19T08:41:20.534Z,100238.50
2022-08-19T08:43:54.565Z,100234.06
2022-08-19T08:46:31.510Z,100236.44
2022-08-19T08:49:08.421Z,100241.38
2022-08-19T08:54:14.645Z,100234.66
2022-08-19T08:56:45.394Z,100223.47
2022-08-19T08:59:26.499Z,100216.47
2022-08-19T09:01:54.679Z,100217.13
2022-08-19T09:04:23.483Z,100218.22
2022-08-19T09:06:58.622Z,100221.59
2022-08-19T09:09:33.408Z,100223.72
2022-08-19T09:12:11.734Z,100224.59
2022-08-19T09:14:51.878Z,100221.78
2022-08-19T09:17:29.003Z,100218.13
2022-08-19T09:20:03.540Z,100222.59
2022-08-19T09:22:32.976Z,100214.84
2022-08-19T09:25:01.614Z,100218.63
2022-08-19T09:27:42.032Z,100228.97
2022-08-19T09:30:18.064Z,100230.94
2022-08-19T09:32:46.690Z,100220.59
2022-08-19T09:35:16.738Z,100215.78
2022-08-19T09:37:45.111Z,100211.56
2022-08-19T09:40:18.662Z,100216.28
2022-08-19T09:42:52.658Z,100209.44
2022-08-19T09:45:23.806Z,100207.22
2022-08-19T09:47:55.203Z,100215.78
2022-08-19T09:50:24.791Z,100219.19
2022-08-19T09:52:57.716Z,100212.50
2022-08-19T09:55:31.252Z,100216.63
2022-08-19T09:58:02.407Z,100214.28
2022-08-19T10:00:34.589Z,100219.34
2022-08-19T10:03:02.644Z,100212.09
2022-08-19T10:05:49.131Z,100207.38
2022-08-19T10:08:18.619Z,100207.84
2022-08-19T10:10:49.922Z,100201.94
2022-08-19T10:13:22.820Z,100206.06
2022-08-19T10:15:52.598Z,100203.94
2022-08-19T10:18:23.742Z,100197.06
2022-08-19T10:20:53.429Z,100206.25
2022-08-19T10:23:22.240Z,100204.56
2022-08-19T10:25:51.322Z,100198.22
2022-08-19T10:28:19.717Z,100199.47
2022-08-19T10:30:48.526Z,100202.59
2022-08-19T10:33:38.619Z,100190.78
2022-08-19T10:36:08.796Z,100190.91
2022-08-19T10:38:36.913Z,100189.19
2022-08-19T10:41:09.902Z,100185.84
2022-08-19T10:43:39.276Z,100182.31
2022-08-19T10:46:09.656Z,100186.19
2022-08-19T10:48:46.819Z,100183.06
2022-08-19T10:51:32.700Z,100174.81
2022-08-19T10:54:02.713Z,100176.72
2022-08-19T10:56:54.107Z,100169.31
2022-08-19T10:59:26.913Z,100169.81
2022-08-19T11:01:56.787Z,100164.63
2022-08-19T11:04:28.876Z,100153.94
2022-08-19T11:06:58.364Z,100144.75
2022-08-19T11:09:33.618Z,100137.03
2022-08-19T11:12:02.789Z,100128.88
2022-08-19T11:14:34.767Z,100133.75
2022-08-19T11:17:03.393Z,100135.53
2022-08-19T11:19:35.190Z,100134.38
2022-08-19T11:22:03.913Z,100139.25
2022-08-19T11:24:33.649Z,100133.75
2022-08-19T11:27:07.269Z,100133.38
2022-08-19T11:29:36.056Z,100135.09
2022-08-19T11:32:06.887Z,100131.19
2022-08-19T11:34:36.608Z,100123.59
2022-08-19T11:37:06.723Z,100121.19
2022-08-19T11:39:36.322Z,100122.50
2022-08-19T11:42:25.518Z,100119.38
2022-08-19T11:44:56.571Z,100098.56
2022-08-19T11:47:25.010Z,100117.59
2022-08-19T11:49:54.353Z,100112.41
2022-08-19T11:52:22.323Z,100113.94
2022-08-19T11:54:50.463Z,100115.06
2022-08-19T11:57:19.418Z,100121.44
2022-08-19T11:59:51.491Z,100119.84
2022-08-19T12:02:20.050Z,100112.75
2022-08-19T12:04:48.327Z,100116.53
2022-08-19T12:07:17.764Z,100107.72
2022-08-19T12:09:45.948Z,100107.69
2022-08-19T12:12:17.274Z,100097.50
2022-08-19T12:14:46.229Z,100102.50
2022-08-19T12:17:14.569Z,100093.34
2022-08-19T12:19:42.486Z,100086.66
2022-08-19T12:22:10.524Z,100083.81
2022-08-19T12:24:40.013Z,100090.22
2022-08-19T12:27:12.504Z,100085.38
2022-08-19T12:29:42.325Z,100088.38
2022-08-19T12:32:12.234Z,100086.75
2022-08-19T12:34:43.405Z,100093.09
2022-08-19T12:37:11.920Z,100088.44
2022-08-19T12:39:43.329Z,100088.34
2022-08-19T12:42:12.365Z,100085.38
2022-08-19T12:44:42.710Z,100097.09
2022-08-19T12:47:12.599Z,100083.66
2022-08-19T12:49:54.203Z,100090.56
2022-08-19T12:52:24.558Z,100091.75
2022-08-19T12:54:56.042Z,100086.22
2022-08-19T12:57:32.270Z,100072.78
2022-08-19T13:00:05.301Z,100078.41
2022-08-19T13:02:38.847Z,100084.88
2022-08-19T13:05:10.708Z,100079.25
2022-08-19T13:07:39.441Z,100079.41
2022-08-19T13:10:12.046Z,100086.75
2022-08-19T13:12:42.922Z,100082.94
2022-08-19T13:15:12.244Z,100089.00
2022-08-19T13:17:41.096Z,100076.19
2022-08-19T13:20:11.969Z,100085.22
2022-08-19T13:22:40.025Z,100080.44
2022-08-19T13:25:10.718Z,100077.59
2022-08-19T13:27:43.392Z,100082.53
2022-08-19T13:30:31.318Z,100080.94
2022-08-19T13:33:16.257Z,100092.91
2022-08-19T13:35:48.551Z,100096.09
2022-08-19T13:38:21.361Z,100104.44
2022-08-19T13:40:52.432Z,100102.22
2022-08-19T13:43:23.767Z,100110.06
2022-08-19T13:45:57.405Z,100108.13
2022-08-19T13:48:27.277Z,100102.44
2022-08-19T13:50:57.726Z,100101.34
2022-08-19T13:53:25.913Z,100107.34
2022-08-19T13:55:55.476Z,100104.38
2022-08-19T13:58:24.309Z,100110.03
2022-08-19T14:00:52.334Z,100107.69
2022-08-19T14:03:20.515Z,100106.81
2022-08-19T14:05:48.625Z,100109.81
2022-08-19T14:08:16.636Z,100116.41
2022-08-19T14:10:45.631Z,100114.97
2022-08-19T14:13:18.774Z,100117.84
2022-08-19T14:15:48.176Z,100118.84
2022-08-19T14:18:16.705Z,100111.41
2022-08-19T14:20:44.883Z,100097.69
2022-08-19T14:23:14.548Z,100097.63
2022-08-19T14:25:42.573Z,100079.22
2022-08-19T14:28:10.730Z,100076.34
2022-08-19T14:30:40.123Z,100076.75
2022-08-19T14:33:09.600Z,100068.50
2022-08-19T14:35:38.433Z,100076.31
2022-08-19T14:38:08.140Z,100066.66
2022-08-19T14:40:36.143Z,100071.00
2022-08-19T14:43:06.209Z,100058.03
2022-08-19T14:45:37.241Z,100064.94
2022-08-19T14:48:08.018Z,100057.09
2022-08-19T14:50:40.493Z,100069.63
2022-08-19T14:53:12.563Z,100048.16
2022-08-19T14:55:44.096Z,100053.34
2022-08-19T14:58:29.370Z,100051.75
2022-08-19T15:01:00.990Z,100046.38
2022-08-19T15:03:32.513Z,100035.00
2022-08-19T15:06:02.216Z,100050.03
2022-08-19T15:08:32.406Z,100043.09
2022-08-19T15:11:02.831Z,100041.25
2022-08-19T15:13:31.435Z,100040.88
2022-08-19T15:16:00.034Z,100051.34
2022-08-19T15:18:28.096Z,100052.47
2022-08-19T15:20:57.796Z,100052.66
2022-08-19T15:23:25.765Z,100043.75
2022-08-19T15:25:55.802Z,100042.34
2022-08-19T15:28:25.868Z,100050.06
2022-08-19T15:30:54.576Z,100049.72
2022-08-19T15:33:22.514Z,100055.88
2022-08-19T15:35:54.033Z,100056.03
2022-08-19T15:38:25.692Z,100054.19
2022-08-19T15:41:15.801Z,100049.50
2022-08-19T15:43:44.242Z,100048.34
2022-08-19T15:46:12.245Z,100043.00
2022-08-19T15:48:45.218Z,100047.56
2022-08-19T15:51:25.496Z,100043.63
2022-08-19T15:53:55.226Z,100039.75
2022-08-19T15:56:27.207Z,100049.63
2022-08-19T15:59:13.232Z,100045.31
2022-08-19T16:02:03.959Z,100061.97
2022-08-19T16:04:49.599Z,100058.78
2022-08-19T16:07:22.347Z,100060.44
2022-08-19T16:09:52.869Z,100059.03
2022-08-19T16:12:21.202Z,100065.00
2022-08-19T16:14:49.528Z,100065.66
2022-08-19T16:17:17.583Z,100066.69
2022-08-19T16:19:47.598Z,100065.47
2022-08-19T16:22:19.603Z,100065.34
2022-08-19T16:24:47.766Z,100061.41
2022-08-19T16:27:17.791Z,100060.44
2022-08-19T16:29:46.626Z,100063.63
2022-08-19T16:32:14.892Z,100068.19
2022-08-19T16:34:44.351Z,100067.28
2022-08-19T16:37:12.312Z,100065.34
2022-08-19T16:39:41.271Z,100064.22
2022-08-19T16:42:13.963Z,100072.28
2022-08-19T16:44:45.965Z,100068.88
2022-08-19T16:47:15.212Z,100072.38
2022-08-19T16:49:53.749Z,100070.09
2022-08-19T16:52:26.190Z,100071.13
2022-08-19T16:54:54.689Z,100078.41
2022-08-19T16:57:23.785Z,100083.25
2022-08-19T16:59:53.395Z,100091.63
2022-08-19T17:02:23.643Z,100088.75
2022-08-19T17:04:59.246Z,100093.81
2022-08-19T17:07:28.049Z,100095.31
2022-08-19T17:09:56.255Z,100094.19
2022-08-19T17:12:30.643Z,100094.38
2022-08-19T17:15:02.954Z,100093.75
2022-08-19T17:17:32.148Z,100095.53
2022-08-19T17:20:02.174Z,100092.44
2022-08-19T17:22:30.262Z,100095.88
2022-08-19T17:24:58.652Z,100103.97
2022-08-19T17:27:32.087Z,100100.31
2022-08-19T17:30:03.120Z,100099.44
2022-08-19T17:32:34.874Z,100101.81
2022-08-19T17:35:04.656Z,100094.66
2022-08-19T17:37:32.949Z,100100.59
2022-08-19T17:40:02.217Z,100098.41
2022-08-19T17:42:30.364Z,100108.91
2022-08-19T17:44:59.369Z,100103.97
2022-08-19T17:47:29.726Z,100110.72
2022-08-19T17:49:57.793Z,100104.94
2022-08-19T17:52:26.000Z,100108.41
2022-08-19T17:54:53.933Z,100107.84
2022-08-19T17:57:22.094Z,100108.59
2022-08-19T17:59:50.401Z,100110.38
2022-08-19T18:02:21.424Z,100106.97
2022-08-19T18:04:51.514Z,100113.63
2022-08-19T18:07:21.571Z,100111.03
2022-08-19T18:09:51.858Z,100115.22
2022-08-19T18:12:26.598Z,100118.09
2022-08-19T18:14:54.568Z,100120.13
2022-08-19T18:17:23.285Z,100122.97
2022-08-19T18:19:52.932Z,100129.13
2022-08-19T18:22:27.202Z,100121.72
2022-08-19T18:24:55.982Z,100131.03
2022-08-19T18:27:23.967Z,100129.50
2022-08-19T18:29:52.302Z,100131.28
2022-08-19T18:32:23.805Z,100137.66
2022-08-19T18:34:56.155Z,100140.16
2022-08-19T18:37:26.269Z,100136.16
2022-08-19T18:40:11.758Z,100129.34
2022-08-19T18:43:00.981Z,100137.09
2022-08-19T18:45:46.873Z,100145.72
2022-08-19T18:48:32.301Z,100149.44
2022-08-19T18:51:04.218Z,100155.66
2022-08-19T18:53:34.517Z,100157.66
2022-08-19T18:56:03.639Z,100160.94
2022-08-19T18:58:34.326Z,100156.53
2022-08-19T19:01:11.339Z,100165.19
2022-08-19T19:03:45.811Z,100168.91
2022-08-19T19:06:18.755Z,100166.75
2022-08-19T19:08:46.867Z,100174.34
2022-08-19T19:11:20.235Z,100181.69
2022-08-19T19:13:49.521Z,100182.81
2022-08-19T19:16:24.114Z,100192.03
2022-08-19T19:18:52.950Z,100192.72
2022-08-19T19:21:23.899Z,100197.97
2022-08-19T19:23:53.118Z,100205.91
2022-08-19T19:26:23.902Z,100203.88
2022-08-19T19:28:52.855Z,100212.66
2022-08-19T19:31:25.568Z,100212.53
2022-08-19T19:33:54.372Z,100210.25
2022-08-19T19:36:24.183Z,100219.41
2022-08-19T19:38:52.874Z,100219.78
2022-08-19T19:41:24.487Z,100225.72
2022-08-19T19:44:29.417Z,100227.28
2022-08-19T19:46:49.092Z,100238.66
2022-08-19T19:49:19.536Z,100229.69
2022-08-19T19:51:48.933Z,100234.34
2022-08-19T19:54:21.747Z,100237.22
2022-08-19T19:56:53.880Z,100239.97
2022-08-19T19:59:22.797Z,100248.53
2022-08-19T20:01:51.271Z,100250.09
2022-08-19T20:04:22.599Z,100249.13
2022-08-19T20:06:51.945Z,100250.50
2022-08-19T20:09:19.889Z,100268.22
2022-08-19T20:11:53.449Z,100263.97
2022-08-19T20:14:23.811Z,100274.00
2022-08-19T20:16:53.909Z,100272.06
2022-08-19T20:19:25.995Z,100270.69
2022-08-19T20:21:57.321Z,100268.28
2022-08-19T20:24:28.002Z,100271.22
2022-08-19T20:26:55.988Z,100270.22
2022-08-19T20:29:39.527Z,100278.56
2022-08-19T20:32:11.531Z,100283.34
2022-08-19T20:34:40.112Z,100278.69
2022-08-19T20:37:09.830Z,100289.00
2022-08-19T20:39:38.280Z,100286.59
2022-08-19T20:42:06.663Z,100284.94
2022-08-19T20:44:34.932Z,100285.59
2022-08-19T20:47:05.214Z,100289.19
2022-08-19T20:49:33.235Z,100282.75
2022-08-19T20:52:01.299Z,100284.25
2022-08-19T20:54:30.877Z,100288.91
2022-08-19T20:56:58.898Z,100281.28
2022-08-19T20:59:27.019Z,100292.25
2022-08-19T21:01:55.536Z,100295.63
2022-08-19T21:04:23.576Z,100285.91
2022-08-19T21:06:54.698Z,100293.22
2022-08-19T21:09:22.744Z,100292.44
2022-08-19T21:11:52.191Z,100295.38
2022-08-19T21:14:20.390Z,100292.88
2022-08-19T21:16:49.267Z,100287.75
2022-08-19T21:19:19.033Z,100301.25
2022-08-19T21:21:50.241Z,100294.69
2022-08-19T21:24:18.192Z,100291.00
2022-08-19T21:26:49.465Z,100295.78
2022-08-19T21:29:21.089Z,100296.00
2022-08-19T21:31:50.121Z,100287.50
2022-08-19T21:34:18.501Z,100286.88
2022-08-19T21:36:46.366Z,100293.06
2022-08-19T21:39:14.360Z,100301.66
2022-08-19T21:41:43.803Z,100306.00
2022-08-19T21:44:11.806Z,100302.25
2022-08-19T21:46:41.006Z,100300.06
2022-08-19T21:49:09.043Z,100306.69
2022-08-19T21:51:36.910Z,100307.34
2022-08-19T21:54:07.317Z,100301.53
2022-08-19T21:56:42.134Z,100308.81
2022-08-19T21:59:10.061Z,100316.91
2022-08-19T22:01:38.050Z,100297.66
2022-08-19T22:04:07.416Z,100302.88
2022-08-19T22:06:35.470Z,100301.81
2022-08-19T22:09:09.244Z,100299.56
2022-08-19T22:11:37.807Z,100308.25
2022-08-19T22:14:05.744Z,100301.00
2022-08-19T22:16:35.753Z,100300.19
2022-08-19T22:19:03.756Z,100303.09
2022-08-19T22:21:40.758Z,100302.69
2022-08-19T22:24:10.368Z,100302.69
2022-08-19T22:26:38.290Z,100304.97
2022-08-19T22:29:07.479Z,100306.66
2022-08-19T22:31:36.418Z,100299.59
2022-08-19T22:34:05.039Z,100304.34
2022-08-19T22:36:35.390Z,100301.06
2022-08-19T22:39:04.091Z,100306.22
2022-08-19T22:41:33.579Z,100310.94
2022-08-19T22:44:01.832Z,100316.94
2022-08-19T22:46:33.568Z,100325.81
2022-08-19T22:49:01.773Z,100319.00
2022-08-19T22:51:49.607Z,100317.97
2022-08-19T22:54:19.063Z,100318.97
2022-08-19T22:56:47.039Z,100318.13
2022-08-19T22:59:15.043Z,100318.53
2022-08-19T23:01:43.049Z,100328.88
2022-08-19T23:04:11.569Z,100326.38
2022-08-19T23:06:42.062Z,100323.88
2022-08-19T23:09:10.913Z,100323.88
2022-08-19T23:11:46.656Z,100326.56
2022-08-19T23:14:16.159Z,100315.81
2022-08-19T23:16:50.844Z,100317.28
2022-08-19T23:19:19.670Z,100317.09
2022-08-19T23:21:48.226Z,100320.81
2022-08-19T23:24:16.162Z,100315.63
2022-08-19T23:27:04.258Z,100306.94
2022-08-19T23:29:51.210Z,100310.03
2022-08-19T23:32:20.248Z,100312.50
2022-08-19T23:34:48.637Z,100309.59
2022-08-19T23:37:16.977Z,100320.72
2022-08-19T23:39:45.466Z,100319.47
2022-08-19T23:42:14.146Z,100323.78
2022-08-19T23:44:51.663Z,100329.75
2022-08-19T23:47:21.972Z,100331.16
2022-08-19T23:49:50.569Z,100330.72
2022-08-19T23:52:21.327Z,100324.09
2022-08-19T23:54:49.351Z,100328.59
2022-08-19T23:57:17.372Z,100332.53
2022-08-19T23:59:48.888Z,100336.81
